WetterOnline ( https://www.wetteronline.de )

Wetter aktuell Magdeburg

Aktuelles Wetter: Magdeburg (85m)

6-stündlich | Neueste Meldungen
Ortszeit Temperatur Wetter
Fr, 03.02. 19:00 7.5° C bewölkt
Fr, 03.02. 13:00 8.3° C wolkig
Fr, 03.02. 7:00 8.5° C bedeckt
Fr, 03.02. 1:00 3.5° C leichter Regen
Do, 02.02. 19:00 4.6° C bedeckt
Do, 02.02. 13:00 7.7° C bewölkt
Do, 02.02. 7:00 4.7° C wolkig
Do, 02.02. 1:00 5.0° C bewölkt
Ortszeit Temperatur Wetter
Fr, 03.02. 21:10 6.4° C bedeckt
Fr, 03.02. 21:00 6.4° C bedeckt
Fr, 03.02. 20:50 6.4° C bedeckt
Fr, 03.02. 20:40 6.6° C bedeckt
Fr, 03.02. 20:30 6.7° C bedeckt
Fr, 03.02. 20:20 6.7° C bedeckt
Fr, 03.02. 20:00 6.8° C bedeckt
Fr, 03.02. 19:30 6.5° C bewölkt
Fr, 03.02. 19:00 7.5° C bewölkt
Fr, 03.02. 18:30 7.5° C bewölkt
Ortszeit Relative Feuchte Sichtweite
Fr, 03.02. 19:00 66% 25 km
Fr, 03.02. 13:00 73% 45 km
Fr, 03.02. 7:00 79% 40 km
Fr, 03.02. 1:00 94% 15 km
Do, 02.02. 19:00 83% 30 km
Do, 02.02. 13:00 68% 30 km
Do, 02.02. 7:00 78% 30 km
Do, 02.02. 1:00 77% 30 km
Ortszeit Relative Feuchte Sichtweite
Fr, 03.02. 21:10 79% -
Fr, 03.02. 21:00 79% 26 km
Fr, 03.02. 20:50 79% -
Fr, 03.02. 20:40 77% -
Fr, 03.02. 20:30 76% 21 km
Fr, 03.02. 20:20 76% -
Fr, 03.02. 20:00 75% 27 km
Fr, 03.02. 19:30 76% 22 km
Fr, 03.02. 19:00 66% 25 km
Fr, 03.02. 18:30 64% 27 km
Ortszeit Niederschlagsmenge Niederschlagsart
Fr, 03.02. 19:00 0.4 l/m2 in 12 Std. -
Fr, 03.02. 13:00 0.4 l/m2 in 6 Std. Regen
Fr, 03.02. 7:00 4 l/m2 in 12 Std. Regen
Fr, 03.02. 1:00 3 l/m2 in 6 Std. Regen
Do, 02.02. 19:00 0.1 l/m2 in 12 Std. Regen
Do, 02.02. 13:00 0.1 l/m2 in 6 Std. Regen
Do, 02.02. 7:00 3 l/m2 in 12 Std. -
Do, 02.02. 1:00 3 l/m2 in 6 Std. Regen
Ortszeit Niederschlagsmenge Niederschlagsart
Fr, 03.02. 21:10 keine Meldung -
Fr, 03.02. 21:00 0.0 l/m2 in 1 Std. -
Fr, 03.02. 20:50 keine Meldung -
Fr, 03.02. 20:40 keine Meldung -
Fr, 03.02. 20:30 0.0 l/m2 in 30 Min -
Fr, 03.02. 20:20 keine Meldung -
Fr, 03.02. 20:00 0.1 l/m2 in 1 Std. Regen
Fr, 03.02. 19:30 0.1 l/m2 in 30 Min Schneeregen
Fr, 03.02. 19:00 0.0 l/m2 in 1 Std. -
Fr, 03.02. 18:30 0.0 l/m2 in 30 Min -
Ortszeit Stärke Spitze Richtung
km/h Bft. km/h Grad Sektor
Fr, 03.02. 19:00 18 3 61 300° NW
Fr, 03.02. 13:00 22 4 61 300° NW
Fr, 03.02. 7:00 24 4 43 260° W
Fr, 03.02. 1:00 13 3 22 180° S
Do, 02.02. 19:00 7 2 43 270° W
Do, 02.02. 13:00 13 3 43 310° NW
Do, 02.02. 7:00 18 3 61 290° W
Do, 02.02. 1:00 25 4 54 270° W
Ortszeit Stärke Spitze Richtung
km/h Bft. km/h Grad Sektor
Fr, 03.02. 21:10 25 4 - 290° W
Fr, 03.02. 21:00 25 4 58 290° W
Fr, 03.02. 20:50 25 4 - 290° W
Fr, 03.02. 20:40 25 4 - 300° NW
Fr, 03.02. 20:30 26 4 50 300° NW
Fr, 03.02. 20:20 26 4 - 300° NW
Fr, 03.02. 20:00 22 4 52 290° W
Fr, 03.02. 19:30 17 3 52 290° W
Fr, 03.02. 19:00 18 3 61 300° NW
Fr, 03.02. 18:30 24 4 61 290° W
Ortszeit Untergrenze Bedeckung Gattung
total tief tief mittel hoch
Fr, 03.02. 19:00 1020 m 7/8 7/8 - - -
Fr, 03.02. 13:00 870 m 8/8 1/8 - - -
Fr, 03.02. 7:00 810 m 8/8 8/8 - - -
Fr, 03.02. 1:00 600 m 8/8 8/8 - - -
Do, 02.02. 19:00 4500 m 8/8 8/8 - - -
Do, 02.02. 13:00 750 m 7/8 7/8 - - -
Do, 02.02. 7:00 630 m 7/8 5/8 - - -
Do, 02.02. 1:00 1500 m 7/8 7/8 - - -
Ortszeit Bedeckungsgrad in Achtel und Wolkenuntergrenze
Fr, 03.02. 21:10 8
Fr, 03.02. 21:00 7(630m) 7(1140m) 8(1800m)
Fr, 03.02. 20:50 7(630m) 7(1140m) 8(1800m)
Fr, 03.02. 20:40 8
Fr, 03.02. 20:30 4(720m) 5(900m) 8(1500m)
Fr, 03.02. 20:20 4(720m) 5(900m) 8(1500m)
Fr, 03.02. 20:00 7(1500m) 8(2100m)
Fr, 03.02. 19:30 3(870m) 3(1050m) 7(1500m)
Fr, 03.02. 19:00 5(1020m) 7(1230m)
Fr, 03.02. 18:30 5(1260m) 7(1470m) 8(6300m)
Ortszeit Luftdruck NN (hPa) Tendenz (hPa in 3 Std.)
Fr, 03.02. 19:00 1018 + 2,6
Fr, 03.02. 13:00 1015 + 0,6
Fr, 03.02. 7:00 1016 - 2,1
Fr, 03.02. 1:00 1022 - 1,7
Do, 02.02. 19:00 1024 + 2,6
Do, 02.02. 13:00 1019 + 1,6
Do, 02.02. 7:00 1015 + 2,1
Do, 02.02. 1:00 1012 + 0,5
Ortszeit Luftdruck NN (hPa) Tendenz (hPa in 3 Std.)
Fr, 03.02. 21:10 1019 keine Meldung
Fr, 03.02. 21:00 1019 + 1,8
Fr, 03.02. 20:50 1019 keine Meldung
Fr, 03.02. 20:40 1019 keine Meldung
Fr, 03.02. 20:30 1019 + 1,5
Fr, 03.02. 20:20 1019 keine Meldung
Fr, 03.02. 20:00 1018 + 1,8
Fr, 03.02. 19:30 1019 + 2,4
Fr, 03.02. 19:00 1018 + 2,6
Fr, 03.02. 18:30 1018 + 2,1
Ortszeit Schneehöhe (cm)
Fr, 03.02. 19:00 0
Fr, 03.02. 13:00 0
Fr, 03.02. 7:00 0
Fr, 03.02. 1:00 0
Do, 02.02. 19:00 0
Do, 02.02. 13:00 0
Do, 02.02. 7:00 0
Do, 02.02. 1:00 0
Ortszeit Schneehöhe (cm)
Fr, 03.02. 21:10 0
Fr, 03.02. 21:00 0
Fr, 03.02. 20:50 0
Fr, 03.02. 20:40 0
Fr, 03.02. 20:30 0
Fr, 03.02. 20:20 0
Fr, 03.02. 20:00 0
Fr, 03.02. 19:30 0
Fr, 03.02. 19:00 0
Fr, 03.02. 18:30 0
Link zu dieser Seite / Seite empfehlen

Das Wetter in ...